createdAt,value
2023-04-07T00:02:07.149Z,11.90
2023-04-07T00:04:38.147Z,11.80
2023-04-07T00:07:11.157Z,11.70
2023-04-07T00:09:41.899Z,11.70
2023-04-07T00:12:12.890Z,11.80
2023-04-07T00:14:44.516Z,11.70
2023-04-07T00:17:18.166Z,11.60
2023-04-07T00:19:50.573Z,11.50
2023-04-07T00:22:21.979Z,11.50
2023-04-07T00:24:53.391Z,11.40
2023-04-07T00:27:24.903Z,11.30
2023-04-07T00:29:57.155Z,11.20
2023-04-07T00:32:30.455Z,11.20
2023-04-07T00:35:02.354Z,11.20
2023-04-07T00:37:33.413Z,11.20
2023-04-07T00:40:05.003Z,11.20
2023-04-07T00:42:37.147Z,11.20
2023-04-07T00:45:08.960Z,11.10
2023-04-07T00:47:41.926Z,11.10
2023-04-07T00:50:13.812Z,11.00
2023-04-07T00:52:45.827Z,11.00
2023-04-07T00:55:17.421Z,11.00
2023-04-07T00:57:49.114Z,11.00
2023-04-07T01:00:21.081Z,10.90
2023-04-07T01:03:00.754Z,10.90
2023-04-07T01:05:41.251Z,10.90
2023-04-07T01:08:21.568Z,10.80
2023-04-07T01:10:56.872Z,10.80
2023-04-07T01:13:32.740Z,10.80
2023-04-07T01:16:07.975Z,10.80
2023-04-07T01:18:44.110Z,10.80
2023-04-07T01:21:22.452Z,10.70
2023-04-07T01:24:19.086Z,10.70
2023-04-07T01:26:52.732Z,10.70
2023-04-07T01:29:41.597Z,10.70
2023-04-07T01:32:15.289Z,10.70
2023-04-07T01:34:47.061Z,10.70
2023-04-07T01:37:19.903Z,10.60
2023-04-07T01:39:51.450Z,10.60
2023-04-07T01:42:24.085Z,10.60
2023-04-07T01:44:59.851Z,10.50
2023-04-07T01:47:33.535Z,10.50
2023-04-07T01:50:07.151Z,10.40
2023-04-07T01:52:40.148Z,10.40
2023-04-07T01:55:12.343Z,10.30
2023-04-07T01:57:43.256Z,10.30
2023-04-07T02:00:17.402Z,10.30
2023-04-07T02:02:50.181Z,10.20
2023-04-07T02:05:24.928Z,10.20
2023-04-07T02:08:01.267Z,10.20
2023-04-07T02:10:36.191Z,10.20
2023-04-07T02:13:10.440Z,10.10
2023-04-07T02:15:46.176Z,10.20
2023-04-07T02:18:19.194Z,10.00
2023-04-07T02:20:50.845Z,10.10
2023-04-07T02:23:21.878Z,10.00
2023-04-07T02:25:53.199Z,10.00
2023-04-07T02:28:24.717Z,9.90
2023-04-07T02:30:57.712Z,9.90
2023-04-07T02:33:28.912Z,9.90
2023-04-07T02:36:00.326Z,9.90
2023-04-07T02:38:31.270Z,9.80
2023-04-07T02:41:02.677Z,9.90
2023-04-07T02:43:33.874Z,9.90
2023-04-07T02:46:06.521Z,9.90
2023-04-07T02:48:38.268Z,9.80
2023-04-07T02:51:09.858Z,9.80
2023-04-07T02:53:41.401Z,9.80
2023-04-07T02:56:12.625Z,9.70
2023-04-07T02:58:43.371Z,9.70
2023-04-07T03:01:16.219Z,9.70
2023-04-07T03:03:48.557Z,9.70
2023-04-07T03:06:19.317Z,9.70
2023-04-07T03:08:50.711Z,9.70
2023-04-07T03:11:21.461Z,9.70
2023-04-07T03:13:52.874Z,9.70
2023-04-07T03:16:26.104Z,9.70
2023-04-07T03:18:57.110Z,9.70
2023-04-07T03:21:29.696Z,9.80
2023-04-07T03:24:00.422Z,9.70
2023-04-07T03:26:31.808Z,9.70
2023-04-07T03:29:02.527Z,9.70
2023-04-07T03:31:36.338Z,9.70
2023-04-07T03:34:08.400Z,9.70
2023-04-07T03:36:39.782Z,9.70
2023-04-07T03:39:10.825Z,9.60
2023-04-07T03:41:42.379Z,9.60
2023-04-07T03:44:13.534Z,9.60
2023-04-07T03:46:46.925Z,9.70
2023-04-07T03:49:18.341Z,9.70
2023-04-07T03:51:49.300Z,9.70
2023-04-07T03:54:20.457Z,9.60
2023-04-07T03:56:52.044Z,9.60
2023-04-07T03:59:23.415Z,9.60
2023-04-07T04:01:56.878Z,9.60
2023-04-07T04:04:27.752Z,9.70
2023-04-07T04:06:59.268Z,9.70
2023-04-07T04:09:30.728Z,9.70
2023-04-07T04:12:02.283Z,9.60
2023-04-07T04:14:33.314Z,9.60
2023-04-07T04:17:08.257Z,9.70
2023-04-07T04:19:40.405Z,9.70
2023-04-07T04:22:12.073Z,9.70
2023-04-07T04:24:44.511Z,9.60
2023-04-07T04:27:15.927Z,9.60
2023-04-07T04:29:48.432Z,9.60
2023-04-07T04:32:22.491Z,9.70
2023-04-07T04:34:53.972Z,9.60
2023-04-07T04:37:25.581Z,9.60
2023-04-07T04:39:56.796Z,9.60
2023-04-07T04:42:29.179Z,9.60
2023-04-07T04:45:01.276Z,9.70
2023-04-07T04:47:36.231Z,9.60
2023-04-07T04:50:09.900Z,9.60
2023-04-07T04:52:41.653Z,9.70
2023-04-07T04:55:14.614Z,9.70
2023-04-07T04:57:46.305Z,9.70
2023-04-07T05:00:18.566Z,9.70
2023-04-07T05:02:52.277Z,9.70
2023-04-07T05:05:23.540Z,9.70
2023-04-07T05:07:55.363Z,9.70
2023-04-07T05:10:26.749Z,9.60
2023-04-07T05:12:58.250Z,9.70
2023-04-07T05:15:29.354Z,9.60
2023-04-07T05:18:02.722Z,9.60
2023-04-07T05:20:33.849Z,9.60
2023-04-07T05:23:05.045Z,9.60
2023-04-07T05:25:36.624Z,9.70
2023-04-07T05:28:07.978Z,9.60
2023-04-07T05:30:38.603Z,9.70
2023-04-07T05:33:12.284Z,9.60
2023-04-07T05:35:44.042Z,9.70
2023-04-07T05:38:15.790Z,9.70
2023-04-07T05:40:47.494Z,9.70
2023-04-07T05:43:19.063Z,9.70
2023-04-07T05:45:50.531Z,9.70
2023-04-07T05:48:23.819Z,9.70
2023-04-07T05:50:55.034Z,9.70
2023-04-07T05:53:26.305Z,9.70
2023-04-07T05:55:57.453Z,9.70
2023-04-07T05:58:29.040Z,9.70
2023-04-07T06:01:01.002Z,9.60
2023-04-07T06:03:34.746Z,9.70
2023-04-07T06:06:06.017Z,9.70
2023-04-07T06:08:38.283Z,9.60
2023-04-07T06:11:09.718Z,9.70
2023-04-07T06:13:42.185Z,9.70
2023-04-07T06:16:13.723Z,9.70
2023-04-07T06:18:48.653Z,9.70
2023-04-07T06:21:19.710Z,9.60
2023-04-07T06:23:52.218Z,9.60
2023-04-07T06:26:23.462Z,9.60
2023-04-07T06:28:55.281Z,9.60
2023-04-07T06:31:26.635Z,9.60
2023-04-07T06:34:01.344Z,9.60
2023-04-07T06:36:32.997Z,9.60
2023-04-07T06:39:04.925Z,9.70
2023-04-07T06:41:42.670Z,9.70
2023-04-07T06:44:14.298Z,9.70
2023-04-07T06:46:45.350Z,9.70
2023-04-07T06:49:19.354Z,9.70
2023-04-07T06:51:51.760Z,9.70
2023-04-07T06:54:23.393Z,9.70
2023-04-07T06:56:55.610Z,9.70
2023-04-07T06:59:27.693Z,9.70
2023-04-07T07:02:00.259Z,9.70
2023-04-07T07:04:35.147Z,9.70
2023-04-07T07:07:06.644Z,9.70
2023-04-07T07:09:38.230Z,9.70
2023-04-07T07:12:09.947Z,9.60
2023-04-07T07:14:41.903Z,9.60
2023-04-07T07:17:14.070Z,9.60
2023-04-07T07:19:47.531Z,9.60
2023-04-07T07:22:19.788Z,9.60
2023-04-07T07:24:51.162Z,9.60
2023-04-07T07:27:22.641Z,9.60
2023-04-07T07:29:54.058Z,9.60
2023-04-07T07:32:25.930Z,9.60
2023-04-07T07:35:00.384Z,9.60
2023-04-07T07:37:31.891Z,9.60
2023-04-07T07:40:03.812Z,9.60
2023-04-07T07:42:35.051Z,9.60
2023-04-07T07:45:06.204Z,9.70
2023-04-07T07:47:38.686Z,9.70
2023-04-07T07:50:13.169Z,9.70
2023-04-07T07:52:45.134Z,9.70
2023-04-07T07:55:16.582Z,9.70
2023-04-07T07:57:49.129Z,9.80
2023-04-07T08:00:21.633Z,9.70
2023-04-07T08:02:53.112Z,9.70
2023-04-07T08:05:26.943Z,9.70
2023-04-07T08:07:58.447Z,9.70
2023-04-07T08:10:29.840Z,9.70
2023-04-07T08:13:02.084Z,9.60
2023-04-07T08:15:33.487Z,9.70
2023-04-07T08:18:06.480Z,9.80
2023-04-07T08:20:40.909Z,9.80
2023-04-07T08:23:12.303Z,9.90
2023-04-07T08:25:43.720Z,9.90
2023-04-07T08:28:16.085Z,10.00
2023-04-07T08:30:47.644Z,10.00
2023-04-07T08:33:19.099Z,10.10
2023-04-07T08:35:53.143Z,10.10
2023-04-07T08:38:24.613Z,10.10
2023-04-07T08:41:11.464Z,10.10
2023-04-07T08:43:45.005Z,10.00
2023-04-07T08:46:17.372Z,10.10
2023-04-07T08:48:50.942Z,10.00
2023-04-07T08:51:30.674Z,10.00
2023-04-07T08:54:10.546Z,9.90
2023-04-07T08:56:43.029Z,9.90
2023-04-07T08:59:15.947Z,10.00
2023-04-07T09:01:47.454Z,9.90
2023-04-07T09:04:20.113Z,9.90
2023-04-07T09:06:54.043Z,9.90
2023-04-07T09:09:25.942Z,9.90
2023-04-07T09:11:58.344Z,9.80
2023-04-07T09:14:30.013Z,9.80
2023-04-07T09:17:02.871Z,9.80
2023-04-07T09:19:35.616Z,9.70
2023-04-07T09:22:09.563Z,9.70
2023-04-07T09:24:40.945Z,9.70
2023-04-07T09:27:18.226Z,9.70
2023-04-07T09:29:51.576Z,9.70
2023-04-07T09:32:42.505Z,9.60
2023-04-07T09:35:14.042Z,9.50
2023-04-07T09:37:48.220Z,9.50
2023-04-07T09:40:30.429Z,9.50
2023-04-07T09:43:01.877Z,9.50
2023-04-07T09:45:36.200Z,9.50
2023-04-07T09:48:11.983Z,9.50
2023-04-07T09:50:47.733Z,9.50
2023-04-07T09:53:21.367Z,9.50
2023-04-07T09:55:54.088Z,9.40
2023-04-07T09:58:25.824Z,9.40
2023-04-07T10:00:57.578Z,9.40
2023-04-07T10:03:29.395Z,9.40
2023-04-07T10:06:01.155Z,9.40
2023-04-07T10:08:37.795Z,9.40
2023-04-07T10:11:09.757Z,9.40
2023-04-07T10:13:43.706Z,9.40
2023-04-07T10:16:15.713Z,9.40
2023-04-07T10:18:47.606Z,9.30
2023-04-07T10:21:20.906Z,9.30
2023-04-07T10:24:04.118Z,9.30
2023-04-07T10:26:40.627Z,9.30
2023-04-07T10:29:16.114Z,9.30
2023-04-07T10:31:48.025Z,9.30
2023-04-07T10:34:19.468Z,9.30
2023-04-07T10:37:15.212Z,9.30
2023-04-07T10:39:48.888Z,9.30
2023-04-07T10:42:51.136Z,9.30
2023-04-07T10:46:04.331Z,9.30
2023-04-07T10:48:38.685Z,9.30
2023-04-07T10:51:18.553Z,9.30
2023-04-07T10:54:26.292Z,9.30
2023-04-07T10:57:18.961Z,9.30
2023-04-07T11:00:20.771Z,9.30
2023-04-07T11:02:52.841Z,9.30
2023-04-07T11:05:25.957Z,9.30
2023-04-07T11:08:07.189Z,9.30
2023-04-07T11:10:38.843Z,9.30
2023-04-07T11:13:12.605Z,9.30
2023-04-07T11:15:43.629Z,9.30
2023-04-07T11:18:20.628Z,9.30
2023-04-07T11:20:55.146Z,9.30
2023-04-07T11:23:28.629Z,9.30
2023-04-07T11:26:04.404Z,9.30
2023-04-07T11:28:37.703Z,9.30
2023-04-07T11:31:09.083Z,9.30
2023-04-07T11:33:40.530Z,9.30
2023-04-07T11:36:12.808Z,9.20
2023-04-07T11:38:47.027Z,9.30
2023-04-07T11:41:19.592Z,9.30
2023-04-07T11:44:07.444Z,9.20
2023-04-07T11:46:40.189Z,9.20
2023-04-07T11:49:16.608Z,9.30
2023-04-07T11:51:49.072Z,9.30
2023-04-07T11:54:20.884Z,9.20
2023-04-07T11:56:56.443Z,9.30
2023-04-07T11:59:31.741Z,9.20
2023-04-07T12:02:03.222Z,9.20
2023-04-07T12:04:35.217Z,9.20
2023-04-07T12:07:12.415Z,9.20
2023-04-07T12:09:44.372Z,9.20
2023-04-07T12:12:15.963Z,9.30
2023-04-07T12:14:49.877Z,9.30
2023-04-07T12:17:24.769Z,9.30
2023-04-07T12:19:56.262Z,9.30
2023-04-07T12:22:27.931Z,9.30
2023-04-07T12:24:59.619Z,9.30
2023-04-07T12:27:42.191Z,9.20
2023-04-07T12:30:18.214Z,9.20
2023-04-07T12:32:49.699Z,9.20
2023-04-07T12:35:21.707Z,9.20
2023-04-07T12:37:53.991Z,9.20
2023-04-07T12:40:25.467Z,9.20
2023-04-07T12:42:59.259Z,9.20
2023-04-07T12:45:32.836Z,9.20
2023-04-07T12:48:04.403Z,9.20
2023-04-07T12:50:35.888Z,9.30
2023-04-07T12:53:07.342Z,9.20
2023-04-07T12:55:39.605Z,9.30
2023-04-07T12:58:12.130Z,9.30
2023-04-07T13:00:45.458Z,9.30
2023-04-07T13:03:17.015Z,9.30
2023-04-07T13:05:49.000Z,9.30
2023-04-07T13:08:20.702Z,9.30
2023-04-07T13:10:52.325Z,9.30
2023-04-07T13:13:23.456Z,9.30
2023-04-07T13:15:57.429Z,9.30
2023-04-07T13:18:28.889Z,9.30
2023-04-07T13:21:30.637Z,9.30
2023-04-07T13:23:52.727Z,9.30
2023-04-07T13:26:23.589Z,9.30
2023-04-07T13:28:55.033Z,9.30
2023-04-07T13:31:28.777Z,9.30
2023-04-07T13:34:00.474Z,9.30
2023-04-07T13:36:32.266Z,9.30
2023-04-07T13:39:03.466Z,9.30
2023-04-07T13:41:34.963Z,9.30
2023-04-07T13:44:06.839Z,9.30
2023-04-07T13:46:42.486Z,9.30
2023-04-07T13:49:14.407Z,9.30
2023-04-07T13:51:46.679Z,9.20
2023-04-07T13:54:20.382Z,9.20
2023-04-07T13:56:52.103Z,9.20
2023-04-07T13:59:23.146Z,9.20
2023-04-07T14:01:56.988Z,9.20
2023-04-07T14:04:28.492Z,9.20
2023-04-07T14:07:00.003Z,9.20
2023-04-07T14:09:31.308Z,9.20
2023-04-07T14:12:02.748Z,9.20
2023-04-07T14:14:34.610Z,9.20
2023-04-07T14:17:08.189Z,9.20
2023-04-07T14:19:39.606Z,9.20
2023-04-07T14:22:11.339Z,9.30
2023-04-07T14:24:42.337Z,9.20
2023-04-07T14:27:13.781Z,9.30
2023-04-07T14:29:45.087Z,9.30
2023-04-07T14:32:19.228Z,9.30
2023-04-07T14:34:50.201Z,9.30
2023-04-07T14:37:25.167Z,9.30
2023-04-07T14:42:30.860Z,9.40
2023-04-07T14:45:03.403Z,9.40
2023-04-07T14:47:36.710Z,9.40
2023-04-07T14:50:08.689Z,9.40
2023-04-07T14:52:40.029Z,9.40
2023-04-07T14:55:12.018Z,9.50
2023-04-07T14:57:43.434Z,9.50
2023-04-07T15:00:16.147Z,9.60
2023-04-07T15:02:50.797Z,9.70
2023-04-07T15:05:23.927Z,9.70
2023-04-07T15:07:55.316Z,9.80
2023-04-07T15:10:26.899Z,9.80
2023-04-07T15:12:59.286Z,9.80
2023-04-07T15:15:30.688Z,9.90
2023-04-07T15:18:04.704Z,9.90
2023-04-07T15:20:36.141Z,10.00
2023-04-07T15:23:07.515Z,10.10
2023-04-07T15:25:38.927Z,10.10
2023-04-07T15:28:13.744Z,10.20
2023-04-07T15:30:48.387Z,10.10
2023-04-07T15:33:22.810Z,10.10
2023-04-07T15:35:55.171Z,10.10
2023-04-07T15:38:27.184Z,10.20
2023-04-07T15:40:58.676Z,10.20
2023-04-07T15:43:30.530Z,10.30
2023-04-07T15:46:01.931Z,10.30
2023-04-07T15:48:35.769Z,10.30
2023-04-07T15:51:06.869Z,10.40
2023-04-07T15:53:38.586Z,10.30
2023-04-07T15:56:11.965Z,10.40
2023-04-07T15:58:46.297Z,10.40
2023-04-07T16:01:17.968Z,10.50
2023-04-07T16:03:51.076Z,10.60
2023-04-07T16:06:22.756Z,10.60
2023-04-07T16:08:53.502Z,10.60
2023-04-07T16:11:24.665Z,10.70
2023-04-07T16:13:55.644Z,10.70
2023-04-07T16:16:27.611Z,10.70
2023-04-07T16:19:04.250Z,10.60
2023-04-07T16:21:36.479Z,10.70
2023-04-07T16:24:07.964Z,10.80
2023-04-07T16:26:38.933Z,10.90
2023-04-07T16:29:09.665Z,10.90
2023-04-07T16:31:42.197Z,11.00
2023-04-07T16:34:15.709Z,10.90
2023-04-07T16:36:47.133Z,10.90
2023-04-07T16:39:18.615Z,11.00
2023-04-07T16:41:50.148Z,10.80
2023-04-07T16:44:23.133Z,10.60
2023-04-07T16:46:55.314Z,10.60
2023-04-07T16:49:28.794Z,10.60
2023-04-07T16:52:00.451Z,10.70
2023-04-07T16:54:31.942Z,10.80
2023-04-07T16:57:03.309Z,10.80
2023-04-07T16:59:35.641Z,10.80
2023-04-07T17:02:13.660Z,10.90
2023-04-07T17:04:47.914Z,10.80
2023-04-07T17:07:19.553Z,10.70
2023-04-07T17:09:50.820Z,10.60
2023-04-07T17:12:22.238Z,10.40
2023-04-07T17:14:53.458Z,10.50
2023-04-07T17:17:25.324Z,10.40
2023-04-07T17:20:00.812Z,10.40
2023-04-07T17:22:32.296Z,10.30
2023-04-07T17:25:04.053Z,10.40
2023-04-07T17:27:36.013Z,10.70
2023-04-07T17:30:08.793Z,10.90
2023-04-07T17:32:40.213Z,10.90
2023-04-07T17:35:14.402Z,10.70
2023-04-07T17:37:46.595Z,10.80
2023-04-07T17:40:18.500Z,10.80
2023-04-07T17:42:50.050Z,10.90
2023-04-07T17:45:22.159Z,10.90
2023-04-07T17:47:54.542Z,11.10
2023-04-07T17:50:28.968Z,11.10
2023-04-07T17:53:01.481Z,11.10
2023-04-07T17:55:33.663Z,11.10
2023-04-07T17:58:05.561Z,11.00
2023-04-07T18:00:37.627Z,11.30
2023-04-07T18:03:09.268Z,11.30
2023-04-07T18:05:47.757Z,11.40
2023-04-07T18:08:19.379Z,11.50
2023-04-07T18:10:50.924Z,11.30
2023-04-07T18:13:21.765Z,11.40
2023-04-07T18:15:53.164Z,11.40
2023-04-07T18:18:24.724Z,11.40
2023-04-07T18:20:58.435Z,11.50
2023-04-07T18:23:30.652Z,11.50
2023-04-07T18:26:02.959Z,11.70
2023-04-07T18:28:34.516Z,11.80
2023-04-07T18:31:07.400Z,11.80
2023-04-07T18:33:39.264Z,11.80
2023-04-07T18:36:12.864Z,11.80
2023-04-07T18:38:45.087Z,11.70
2023-04-07T18:41:18.410Z,11.70
2023-04-07T18:43:50.747Z,11.90
2023-04-07T18:46:22.657Z,11.90
2023-04-07T18:48:54.498Z,11.80
2023-04-07T18:51:28.511Z,11.80
2023-04-07T18:54:00.135Z,11.80
2023-04-07T18:56:31.418Z,11.70
2023-04-07T18:59:03.292Z,12.10
2023-04-07T19:01:35.168Z,12.10
2023-04-07T19:04:07.336Z,12.10
2023-04-07T19:06:41.233Z,12.30
2023-04-07T19:09:12.700Z,12.40
2023-04-07T19:11:44.660Z,12.30
2023-04-07T19:14:15.874Z,12.50
2023-04-07T19:16:47.926Z,12.40
2023-04-07T19:19:19.311Z,12.70
2023-04-07T19:21:53.322Z,12.90
2023-04-07T19:24:25.116Z,13.10
2023-04-07T19:26:58.402Z,13.00
2023-04-07T19:29:30.317Z,13.00
2023-04-07T19:32:01.804Z,13.10
2023-04-07T19:34:33.665Z,13.20
2023-04-07T19:37:07.352Z,13.10
2023-04-07T19:39:52.178Z,13.10
2023-04-07T19:42:31.963Z,13.00
2023-04-07T19:45:05.893Z,13.00
2023-04-07T19:47:37.150Z,13.30
2023-04-07T19:50:12.289Z,13.20
2023-04-07T19:52:48.974Z,13.30
2023-04-07T19:55:20.572Z,13.10
2023-04-07T19:57:51.939Z,13.10
2023-04-07T20:00:24.914Z,12.90
2023-04-07T20:02:56.659Z,12.90
2023-04-07T20:05:32.850Z,12.90
2023-04-07T20:08:06.250Z,12.90
2023-04-07T20:10:38.519Z,12.70
2023-04-07T20:13:10.338Z,12.60
2023-04-07T20:15:43.858Z,12.70
2023-04-07T20:18:21.567Z,12.70
2023-04-07T20:20:53.218Z,12.80
2023-04-07T20:23:34.860Z,12.90
2023-04-07T20:26:10.119Z,13.10
2023-04-07T20:28:43.080Z,13.30
2023-04-07T20:31:14.840Z,13.60
2023-04-07T20:33:48.976Z,13.90
2023-04-07T20:36:20.748Z,13.90
2023-04-07T20:38:54.423Z,14.00
2023-04-07T20:41:25.914Z,13.50
2023-04-07T20:43:57.320Z,13.70
2023-04-07T20:46:30.922Z,13.90
2023-04-07T20:49:15.952Z,13.80
2023-04-07T20:51:50.573Z,13.60
2023-04-07T20:54:27.864Z,13.30
2023-04-07T20:57:02.621Z,13.40
2023-04-07T20:59:37.349Z,13.50
2023-04-07T21:02:09.370Z,13.30
2023-04-07T21:04:41.508Z,13.50
2023-04-07T21:07:15.901Z,13.70
2023-04-07T21:09:50.166Z,13.60
2023-04-07T21:12:27.797Z,13.70
2023-04-07T21:15:03.174Z,13.60
2023-04-07T21:17:37.230Z,13.70
2023-04-07T21:20:09.222Z,13.40
2023-04-07T21:22:53.838Z,13.50
2023-04-07T21:25:31.104Z,13.80
2023-04-07T21:28:06.675Z,13.40
2023-04-07T21:30:39.705Z,13.50
2023-04-07T21:33:14.978Z,13.70
2023-04-07T21:35:49.876Z,13.70
2023-04-07T21:38:23.842Z,13.90
2023-04-07T21:43:45.240Z,13.70
2023-04-07T21:46:17.992Z,13.50
2023-04-07T21:48:50.322Z,13.60
2023-04-07T21:51:21.930Z,13.50
2023-04-07T21:53:53.474Z,13.70
2023-04-07T21:56:28.925Z,13.50
2023-04-07T21:59:00.656Z,13.50
2023-04-07T22:01:32.382Z,13.60
2023-04-07T22:04:04.158Z,13.90
2023-04-07T22:06:36.244Z,14.30
2023-04-07T22:09:08.752Z,14.50
2023-04-07T22:11:42.472Z,14.40
2023-04-07T22:14:13.932Z,14.30
2023-04-07T22:16:45.019Z,14.60
2023-04-07T22:19:16.489Z,14.60
2023-04-07T22:21:48.637Z,14.70
2023-04-07T22:24:20.342Z,14.90
2023-04-07T22:26:54.942Z,14.50
2023-04-07T22:29:27.322Z,14.40
2023-04-07T22:31:58.852Z,14.80
2023-04-07T22:34:30.332Z,15.30
2023-04-07T22:37:01.811Z,15.50
2023-04-07T22:39:34.137Z,15.40
2023-04-07T22:42:07.548Z,15.10
2023-04-07T22:44:38.881Z,14.90
2023-04-07T22:47:10.469Z,15.00
2023-04-07T22:49:41.979Z,15.10
2023-04-07T22:52:13.483Z,15.00
2023-04-07T22:54:44.857Z,15.00
2023-04-07T22:57:18.138Z,14.50
2023-04-07T22:59:49.540Z,14.30
2023-04-07T23:02:21.528Z,14.20
2023-04-07T23:04:53.078Z,14.00
2023-04-07T23:07:24.596Z,13.90
2023-04-07T23:09:56.559Z,13.80
2023-04-07T23:12:30.510Z,13.80
2023-04-07T23:15:02.659Z,13.90
2023-04-07T23:17:34.870Z,14.10
2023-04-07T23:20:06.010Z,14.40
2023-04-07T23:22:37.953Z,14.20
2023-04-07T23:25:10.694Z,13.80
2023-04-07T23:27:44.167Z,13.70
2023-04-07T23:30:16.968Z,13.60
2023-04-07T23:32:47.788Z,13.40
2023-04-07T23:35:18.947Z,13.30
2023-04-07T23:37:50.409Z,13.40
2023-04-07T23:40:22.050Z,13.30
2023-04-07T23:42:57.490Z,13.20
2023-04-07T23:45:28.965Z,13.20
2023-04-07T23:48:00.425Z,13.10
2023-04-07T23:50:31.993Z,13.10
2023-04-07T23:53:03.890Z,13.20
2023-04-07T23:55:35.363Z,12.90
2023-04-07T23:58:08.532Z,13.10
